Saratoga Springs, NY

8:02 AM EST on January 30, 2015 (GMT -0500)
Albany International | Change Station
CLOSE
Current Station
Airport
Location: Albany,
Elevation: 292 ft
Nearby Weather Stations

Elev 292 ft 42.75 °N, 73.80 °W | Updated 7 minutes ago

Overcast
Overcast
28 °F
Feels Like 23 °F
N
5
Wind Variable Wind from South

Today
High -- | Low -- °F
--% Chance of Precip.
Yesterday
High -- | Low -- °F
Precip. -- in
7:12 AM 5:04 PM
Waxing Gibbous, 82% visible
Pressure 29.84 in
Visibility 1.2 miles
Clouds Overcast 2200 ft
Windchill 23 °F
Dew Point 24 °F
Humidity 85%
Rainfall 0.06 in
Snow Depth Not available.
UV 0 out of 12
Pollen .10 out of 12
Air Quality Not available.
Flu Activity Not available.
SPECI KALB 301255Z 19004KT 1 1/4SM -SN BR OVC022 M02/M04 A2984 RMK AO2 VIS 1V1 1/2 P0000 T10221044

More Conditions Fewer Conditions

Pressure 29.84 in
Visibility 1.2 miles
Clouds Overcast 2200 ft
Windchill 23 °F
Dew Point 24 °F
Humidity 85%
Rainfall 0.06 in
Snow Depth Not available.
UV 0 out of 12
Pollen .10 out of 12
Air Quality Not available.
Flu Activity Not available.
SPECI KALB 301255Z 19004KT 1 1/4SM -SN BR OVC022 M02/M04 A2984 RMK AO2 VIS 1V1 1/2 P0000 T10221044

More Conditions Fewer Conditions

10-Day Weather Forecast

Almanac

Astronomy

Jan. 30, 2015 Rise Set
Actual Time
Civil Twilight
Nautical Twilight
Astronomical Twilight
Moon
Length of Visible Light
Length of Day
Tomorrow will be .
, % of the Moon is Illuminated

Today's Extremes

State Highs State Lows

Community

WunderPhotos

Upload Photos

1,791,747 photos uploaded!

WunderBlogs® & News

Nearby

Air Quality

  Air Quality AQ Index Pollutant
Not available.

Snow Depth

Station Depth Elevation

Earthquake Activity

City Distance Mag. Time & Date
Minimum magnitude displayed is 2.5.

Coastal Water Temperatures

Place Temperature

Nearby Weather Stations